Terminal Aerodrome Forecast
Issued by NWS

Home | Current Version | Previous Version | Graphics & Text | Print | Product List | Glossary On
Versions: 1 2 3 4 5 6 7 8 9 10 11 12 13 14 15 16 17 18
376
FTUS43 KBIS 231120
TAFMOT
TAF
KMOT 231120Z 2312/2412 27006KT P6SM SKC
     FM231900 20004KT P6SM FEW250
     FM232300 14006KT P6SM FEW250
     FM241000 17008KT P6SM FEW110 FEW200 WS015/20030KT=

USA.gov is the U.S. government's official web portal to all federal, state and local government web resources and services.